sensor_id;sensor_type;location;lat;lon;timestamp;temperature;humidity
36424;DHT22;22458;45.328;9.514;2022-07-04T00:00:16;30.80;59.00
36424;DHT22;22458;45.328;9.514;2022-07-04T00:02:43;30.90;58.50
36424;DHT22;22458;45.328;9.514;2022-07-04T00:05:10;31.00;58.10
36424;DHT22;22458;45.328;9.514;2022-07-04T00:07:40;31.00;57.50
36424;DHT22;22458;45.328;9.514;2022-07-04T00:10:07;31.00;57.10
36424;DHT22;22458;45.328;9.514;2022-07-04T00:12:34;31.00;56.30
36424;DHT22;22458;45.328;9.514;2022-07-04T00:15:00;31.00;56.30
36424;DHT22;22458;45.328;9.514;2022-07-04T00:17:26;31.00;56.20
36424;DHT22;22458;45.328;9.514;2022-07-04T00:19:52;31.00;56.10
36424;DHT22;22458;45.328;9.514;2022-07-04T00:22:18;31.00;56.10
36424;DHT22;22458;45.328;9.514;2022-07-04T00:24:44;31.00;56.00
36424;DHT22;22458;45.328;9.514;2022-07-04T00:27:10;31.00;56.20
36424;DHT22;22458;45.328;9.514;2022-07-04T00:29:36;30.90;56.30
36424;DHT22;22458;45.328;9.514;2022-07-04T00:32:02;30.70;56.70
36424;DHT22;22458;45.328;9.514;2022-07-04T00:34:28;30.30;57.70
36424;DHT22;22458;45.328;9.514;2022-07-04T00:36:53;30.00;58.40
36424;DHT22;22458;45.328;9.514;2022-07-04T00:39:19;30.00;58.70
36424;DHT22;22458;45.328;9.514;2022-07-04T00:41:45;30.20;58.70
36424;DHT22;22458;45.328;9.514;2022-07-04T00:44:13;30.30;58.60
36424;DHT22;22458;45.328;9.514;2022-07-04T00:46:40;30.40;58.70
36424;DHT22;22458;45.328;9.514;2022-07-04T00:49:06;30.40;58.70
36424;DHT22;22458;45.328;9.514;2022-07-04T00:51:33;30.50;58.70
36424;DHT22;22458;45.328;9.514;2022-07-04T00:53:59;30.50;58.70
36424;DHT22;22458;45.328;9.514;2022-07-04T00:56:26;30.50;58.70
36424;DHT22;22458;45.328;9.514;2022-07-04T00:58:52;30.60;58.80
36424;DHT22;22458;45.328;9.514;2022-07-04T01:01:21;30.60;58.90
36424;DHT22;22458;45.328;9.514;2022-07-04T01:03:48;30.60;59.00
36424;DHT22;22458;45.328;9.514;2022-07-04T01:06:15;30.60;59.10
36424;DHT22;22458;45.328;9.514;2022-07-04T01:08:42;30.60;59.20
36424;DHT22;22458;45.328;9.514;2022-07-04T01:11:09;30.60;59.20
36424;DHT22;22458;45.328;9.514;2022-07-04T01:13:35;30.70;59.30
36424;DHT22;22458;45.328;9.514;2022-07-04T01:16:02;30.70;59.40
36424;DHT22;22458;45.328;9.514;2022-07-04T01:18:28;30.60;59.70
36424;DHT22;22458;45.328;9.514;2022-07-04T01:20:54;30.60;60.10
36424;DHT22;22458;45.328;9.514;2022-07-04T01:23:20;30.50;59.50
36424;DHT22;22458;45.328;9.514;2022-07-04T01:25:46;30.60;59.40
36424;DHT22;22458;45.328;9.514;2022-07-04T01:28:12;30.60;59.50
36424;DHT22;22458;45.328;9.514;2022-07-04T01:30:38;30.60;59.40
36424;DHT22;22458;45.328;9.514;2022-07-04T01:33:04;30.50;59.40
36424;DHT22;22458;45.328;9.514;2022-07-04T01:35:30;30.60;59.50
36424;DHT22;22458;45.328;9.514;2022-07-04T01:37:56;30.60;59.60
36424;DHT22;22458;45.328;9.514;2022-07-04T01:40:23;30.40;60.40
36424;DHT22;22458;45.328;9.514;2022-07-04T01:42:49;30.40;59.70
36424;DHT22;22458;45.328;9.514;2022-07-04T01:45:15;30.40;59.90
36424;DHT22;22458;45.328;9.514;2022-07-04T01:47:41;30.50;60.00
36424;DHT22;22458;45.328;9.514;2022-07-04T01:50:08;30.50;60.00
36424;DHT22;22458;45.328;9.514;2022-07-04T01:52:35;30.50;60.20
36424;DHT22;22458;45.328;9.514;2022-07-04T01:55:01;30.40;60.10
36424;DHT22;22458;45.328;9.514;2022-07-04T01:57:26;30.30;60.60
36424;DHT22;22458;45.328;9.514;2022-07-04T01:59:52;30.20;60.70
36424;DHT22;22458;45.328;9.514;2022-07-04T02:02:37;30.20;60.90
36424;DHT22;22458;45.328;9.514;2022-07-04T02:05:03;30.20;61.20
36424;DHT22;22458;45.328;9.514;2022-07-04T02:07:29;30.10;61.70
36424;DHT22;22458;45.328;9.514;2022-07-04T02:09:55;30.10;61.70
36424;DHT22;22458;45.328;9.514;2022-07-04T02:12:21;30.00;61.70
36424;DHT22;22458;45.328;9.514;2022-07-04T02:15:05;30.00;61.90
36424;DHT22;22458;45.328;9.514;2022-07-04T02:17:31;30.00;62.10
36424;DHT22;22458;45.328;9.514;2022-07-04T02:19:57;30.00;62.30
36424;DHT22;22458;45.328;9.514;2022-07-04T02:22:23;30.00;62.80
36424;DHT22;22458;45.328;9.514;2022-07-04T02:24:49;30.00;62.30
36424;DHT22;22458;45.328;9.514;2022-07-04T02:27:15;30.00;62.80
36424;DHT22;22458;45.328;9.514;2022-07-04T02:29:41;30.00;62.90
36424;DHT22;22458;45.328;9.514;2022-07-04T02:32:07;30.00;62.80
36424;DHT22;22458;45.328;9.514;2022-07-04T02:34:33;30.00;62.80
36424;DHT22;22458;45.328;9.514;2022-07-04T02:36:58;29.90;62.70
36424;DHT22;22458;45.328;9.514;2022-07-04T02:39:24;29.90;62.70
36424;DHT22;22458;45.328;9.514;2022-07-04T02:41:50;29.90;62.70
36424;DHT22;22458;45.328;9.514;2022-07-04T02:44:16;29.90;62.70
36424;DHT22;22458;45.328;9.514;2022-07-04T02:46:42;29.90;62.70
36424;DHT22;22458;45.328;9.514;2022-07-04T02:49:08;29.90;62.60
36424;DHT22;22458;45.328;9.514;2022-07-04T02:51:34;29.90;62.70
36424;DHT22;22458;45.328;9.514;2022-07-04T02:53:59;29.90;62.70
36424;DHT22;22458;45.328;9.514;2022-07-04T02:56:25;29.90;62.90
36424;DHT22;22458;45.328;9.514;2022-07-04T02:58:51;29.90;63.00
36424;DHT22;22458;45.328;9.514;2022-07-04T03:01:17;30.00;63.10
36424;DHT22;22458;45.328;9.514;2022-07-04T03:03:45;30.00;63.10
36424;DHT22;22458;45.328;9.514;2022-07-04T03:06:12;30.00;63.10
36424;DHT22;22458;45.328;9.514;2022-07-04T03:08:38;29.90;63.10
36424;DHT22;22458;45.328;9.514;2022-07-04T03:11:05;29.90;63.40
36424;DHT22;22458;45.328;9.514;2022-07-04T03:13:31;29.90;63.50
36424;DHT22;22458;45.328;9.514;2022-07-04T03:15:57;29.90;63.50
36424;DHT22;22458;45.328;9.514;2022-07-04T03:18:23;29.90;63.50
36424;DHT22;22458;45.328;9.514;2022-07-04T03:20:48;29.90;63.70
36424;DHT22;22458;45.328;9.514;2022-07-04T03:23:14;29.80;63.50
36424;DHT22;22458;45.328;9.514;2022-07-04T03:25:40;29.70;63.70
36424;DHT22;22458;45.328;9.514;2022-07-04T03:28:06;29.70;63.80
36424;DHT22;22458;45.328;9.514;2022-07-04T03:30:33;29.70;64.00
36424;DHT22;22458;45.328;9.514;2022-07-04T03:32:59;29.70;64.10
36424;DHT22;22458;45.328;9.514;2022-07-04T03:35:25;29.60;64.10
36424;DHT22;22458;45.328;9.514;2022-07-04T03:37:51;29.50;64.80
36424;DHT22;22458;45.328;9.514;2022-07-04T03:40:18;29.50;64.90
36424;DHT22;22458;45.328;9.514;2022-07-04T03:42:44;29.40;66.10
36424;DHT22;22458;45.328;9.514;2022-07-04T03:45:10;29.40;65.80
36424;DHT22;22458;45.328;9.514;2022-07-04T03:47:36;29.30;66.20
36424;DHT22;22458;45.328;9.514;2022-07-04T03:50:02;29.30;66.70
36424;DHT22;22458;45.328;9.514;2022-07-04T03:52:28;29.10;66.90
36424;DHT22;22458;45.328;9.514;2022-07-04T03:54:54;28.90;67.40
36424;DHT22;22458;45.328;9.514;2022-07-04T03:57:20;28.80;67.90
36424;DHT22;22458;45.328;9.514;2022-07-04T03:59:46;28.70;68.00
36424;DHT22;22458;45.328;9.514;2022-07-04T04:02:11;28.70;68.30
36424;DHT22;22458;45.328;9.514;2022-07-04T04:04:37;28.50;69.20
36424;DHT22;22458;45.328;9.514;2022-07-04T04:07:26;28.30;69.90
36424;DHT22;22458;45.328;9.514;2022-07-04T04:09:52;28.10;70.40
36424;DHT22;22458;45.328;9.514;2022-07-04T04:12:18;28.00;70.60
36424;DHT22;22458;45.328;9.514;2022-07-04T04:14:44;28.00;70.60
36424;DHT22;22458;45.328;9.514;2022-07-04T04:17:09;28.10;70.60
36424;DHT22;22458;45.328;9.514;2022-07-04T04:19:35;28.20;70.10
36424;DHT22;22458;45.328;9.514;2022-07-04T04:22:01;28.30;69.80
36424;DHT22;22458;45.328;9.514;2022-07-04T04:24:27;28.40;69.50
36424;DHT22;22458;45.328;9.514;2022-07-04T04:26:53;28.50;69.20
36424;DHT22;22458;45.328;9.514;2022-07-04T04:29:18;28.60;69.20
36424;DHT22;22458;45.328;9.514;2022-07-04T04:31:44;28.60;69.40
36424;DHT22;22458;45.328;9.514;2022-07-04T04:34:11;28.80;69.40
36424;DHT22;22458;45.328;9.514;2022-07-04T04:36:36;28.80;69.50
36424;DHT22;22458;45.328;9.514;2022-07-04T04:39:03;28.80;69.30
36424;DHT22;22458;45.328;9.514;2022-07-04T04:41:29;28.80;69.30
36424;DHT22;22458;45.328;9.514;2022-07-04T04:43:54;28.80;69.20
36424;DHT22;22458;45.328;9.514;2022-07-04T04:46:21;28.80;68.40
36424;DHT22;22458;45.328;9.514;2022-07-04T04:48:47;28.70;69.00
36424;DHT22;22458;45.328;9.514;2022-07-04T04:51:12;28.60;69.70
36424;DHT22;22458;45.328;9.514;2022-07-04T04:53:38;28.60;69.70
36424;DHT22;22458;45.328;9.514;2022-07-04T04:56:04;28.70;69.80
36424;DHT22;22458;45.328;9.514;2022-07-04T04:58:30;28.70;70.00
36424;DHT22;22458;45.328;9.514;2022-07-04T05:00:56;28.80;69.80
36424;DHT22;22458;45.328;9.514;2022-07-04T05:03:21;28.80;70.00
36424;DHT22;22458;45.328;9.514;2022-07-04T05:05:47;28.90;69.40
36424;DHT22;22458;45.328;9.514;2022-07-04T05:08:13;28.90;69.20
36424;DHT22;22458;45.328;9.514;2022-07-04T05:10:39;29.00;69.20
36424;DHT22;22458;45.328;9.514;2022-07-04T05:13:06;28.90;69.40
36424;DHT22;22458;45.328;9.514;2022-07-04T05:15:32;28.80;69.60
36424;DHT22;22458;45.328;9.514;2022-07-04T05:17:58;28.70;70.00
36424;DHT22;22458;45.328;9.514;2022-07-04T05:20:24;28.50;70.30
36424;DHT22;22458;45.328;9.514;2022-07-04T05:22:49;28.40;70.60
36424;DHT22;22458;45.328;9.514;2022-07-04T05:25:15;28.40;70.90
36424;DHT22;22458;45.328;9.514;2022-07-04T05:27:41;28.30;71.00
36424;DHT22;22458;45.328;9.514;2022-07-04T05:30:08;28.40;70.90
36424;DHT22;22458;45.328;9.514;2022-07-04T05:32:34;28.50;70.60
36424;DHT22;22458;45.328;9.514;2022-07-04T05:35:00;28.50;70.50
36424;DHT22;22458;45.328;9.514;2022-07-04T05:37:25;28.60;70.40
36424;DHT22;22458;45.328;9.514;2022-07-04T05:39:51;28.70;70.30
36424;DHT22;22458;45.328;9.514;2022-07-04T05:42:17;28.80;69.90
36424;DHT22;22458;45.328;9.514;2022-07-04T05:44:43;28.80;69.70
36424;DHT22;22458;45.328;9.514;2022-07-04T05:47:09;28.80;69.50
36424;DHT22;22458;45.328;9.514;2022-07-04T05:49:35;28.90;68.80
36424;DHT22;22458;45.328;9.514;2022-07-04T05:52:01;29.00;68.50
36424;DHT22;22458;45.328;9.514;2022-07-04T05:54:27;29.00;68.10
36424;DHT22;22458;45.328;9.514;2022-07-04T05:56:53;29.10;68.00
36424;DHT22;22458;45.328;9.514;2022-07-04T05:59:19;29.00;67.90
36424;DHT22;22458;45.328;9.514;2022-07-04T06:01:45;29.10;67.80
36424;DHT22;22458;45.328;9.514;2022-07-04T06:04:10;29.20;67.50
36424;DHT22;22458;45.328;9.514;2022-07-04T06:06:36;29.40;67.10
36424;DHT22;22458;45.328;9.514;2022-07-04T06:09:03;29.50;66.90
36424;DHT22;22458;45.328;9.514;2022-07-04T06:11:29;29.50;66.20
36424;DHT22;22458;45.328;9.514;2022-07-04T06:13:55;29.40;66.20
36424;DHT22;22458;45.328;9.514;2022-07-04T06:16:21;29.40;66.10
36424;DHT22;22458;45.328;9.514;2022-07-04T06:18:47;29.50;66.70
36424;DHT22;22458;45.328;9.514;2022-07-04T06:21:13;29.50;66.10
36424;DHT22;22458;45.328;9.514;2022-07-04T06:23:38;29.50;65.90
36424;DHT22;22458;45.328;9.514;2022-07-04T06:26:04;29.50;66.30
36424;DHT22;22458;45.328;9.514;2022-07-04T06:28:30;29.50;66.80
36424;DHT22;22458;45.328;9.514;2022-07-04T06:30:56;29.40;66.40
36424;DHT22;22458;45.328;9.514;2022-07-04T06:33:22;29.40;66.10
36424;DHT22;22458;45.328;9.514;2022-07-04T06:35:47;29.40;66.00
36424;DHT22;22458;45.328;9.514;2022-07-04T06:38:25;29.40;65.70
36424;DHT22;22458;45.328;9.514;2022-07-04T06:40:56;29.40;66.00
36424;DHT22;22458;45.328;9.514;2022-07-04T06:43:22;29.30;65.70
36424;DHT22;22458;45.328;9.514;2022-07-04T06:45:48;29.30;65.50
36424;DHT22;22458;45.328;9.514;2022-07-04T06:48:14;29.40;65.50
36424;DHT22;22458;45.328;9.514;2022-07-04T06:50:40;29.50;65.60
36424;DHT22;22458;45.328;9.514;2022-07-04T06:53:07;29.60;64.90
36424;DHT22;22458;45.328;9.514;2022-07-04T06:55:34;29.70;64.00
36424;DHT22;22458;45.328;9.514;2022-07-04T06:57:59;29.80;63.60
36424;DHT22;22458;45.328;9.514;2022-07-04T07:00:25;29.70;64.50
36424;DHT22;22458;45.328;9.514;2022-07-04T07:02:51;29.70;65.80
36424;DHT22;22458;45.328;9.514;2022-07-04T07:05:17;29.70;66.00
36424;DHT22;22458;45.328;9.514;2022-07-04T07:07:43;29.80;66.50
36424;DHT22;22458;45.328;9.514;2022-07-04T07:10:09;29.90;65.40
36424;DHT22;22458;45.328;9.514;2022-07-04T07:12:35;30.00;65.00
36424;DHT22;22458;45.328;9.514;2022-07-04T07:15:01;30.00;66.00
36424;DHT22;22458;45.328;9.514;2022-07-04T07:17:28;30.10;66.80
36424;DHT22;22458;45.328;9.514;2022-07-04T07:19:54;30.10;66.20
36424;DHT22;22458;45.328;9.514;2022-07-04T07:22:20;30.20;65.10
36424;DHT22;22458;45.328;9.514;2022-07-04T07:24:46;30.20;64.50
36424;DHT22;22458;45.328;9.514;2022-07-04T07:27:11;30.20;63.90
36424;DHT22;22458;45.328;9.514;2022-07-04T07:29:38;30.30;63.80
36424;DHT22;22458;45.328;9.514;2022-07-04T07:32:05;30.40;63.40
36424;DHT22;22458;45.328;9.514;2022-07-04T07:34:31;30.50;64.10
36424;DHT22;22458;45.328;9.514;2022-07-04T07:36:57;30.50;63.70
36424;DHT22;22458;45.328;9.514;2022-07-04T07:39:23;30.60;63.80
36424;DHT22;22458;45.328;9.514;2022-07-04T07:41:49;30.70;63.70
36424;DHT22;22458;45.328;9.514;2022-07-04T07:44:15;30.80;63.50
36424;DHT22;22458;45.328;9.514;2022-07-04T07:46:41;30.80;63.70
36424;DHT22;22458;45.328;9.514;2022-07-04T07:49:06;30.90;64.10
36424;DHT22;22458;45.328;9.514;2022-07-04T07:51:32;31.10;63.70
36424;DHT22;22458;45.328;9.514;2022-07-04T07:53:59;31.10;63.20
36424;DHT22;22458;45.328;9.514;2022-07-04T07:56:25;31.20;63.00
36424;DHT22;22458;45.328;9.514;2022-07-04T07:58:51;31.20;63.00
36424;DHT22;22458;45.328;9.514;2022-07-04T08:01:18;31.10;63.10
36424;DHT22;22458;45.328;9.514;2022-07-04T08:03:43;31.10;63.50
36424;DHT22;22458;45.328;9.514;2022-07-04T08:06:28;31.10;63.60
36424;DHT22;22458;45.328;9.514;2022-07-04T08:08:54;31.10;63.50
36424;DHT22;22458;45.328;9.514;2022-07-04T08:11:20;31.20;63.40
36424;DHT22;22458;45.328;9.514;2022-07-04T08:13:46;31.30;62.40
36424;DHT22;22458;45.328;9.514;2022-07-04T08:16:11;31.50;62.00
36424;DHT22;22458;45.328;9.514;2022-07-04T08:18:37;31.50;62.00
36424;DHT22;22458;45.328;9.514;2022-07-04T08:21:03;31.50;62.10
36424;DHT22;22458;45.328;9.514;2022-07-04T08:23:31;31.50;61.80
36424;DHT22;22458;45.328;9.514;2022-07-04T08:25:58;31.50;61.40
36424;DHT22;22458;45.328;9.514;2022-07-04T08:28:25;31.50;61.70
36424;DHT22;22458;45.328;9.514;2022-07-04T08:30:50;31.50;61.40
36424;DHT22;22458;45.328;9.514;2022-07-04T08:33:16;31.50;61.50
36424;DHT22;22458;45.328;9.514;2022-07-04T08:35:42;31.70;60.80
36424;DHT22;22458;45.328;9.514;2022-07-04T08:38:08;31.70;60.40
36424;DHT22;22458;45.328;9.514;2022-07-04T08:40:34;31.80;59.90
36424;DHT22;22458;45.328;9.514;2022-07-04T08:43:02;31.80;59.70
36424;DHT22;22458;45.328;9.514;2022-07-04T08:45:33;31.80;59.20
36424;DHT22;22458;45.328;9.514;2022-07-04T08:48:04;32.00;59.20
36424;DHT22;22458;45.328;9.514;2022-07-04T08:50:37;32.00;59.00
36424;DHT22;22458;45.328;9.514;2022-07-04T08:53:11;32.10;58.90
36424;DHT22;22458;45.328;9.514;2022-07-04T08:55:39;32.20;58.90
36424;DHT22;22458;45.328;9.514;2022-07-04T08:58:24;32.20;58.80
36424;DHT22;22458;45.328;9.514;2022-07-04T09:00:56;32.30;58.90
36424;DHT22;22458;45.328;9.514;2022-07-04T09:03:24;32.20;59.00
36424;DHT22;22458;45.328;9.514;2022-07-04T09:05:50;32.10;58.70
36424;DHT22;22458;45.328;9.514;2022-07-04T09:08:16;32.00;58.60
36424;DHT22;22458;45.328;9.514;2022-07-04T09:10:42;32.10;58.00
36424;DHT22;22458;45.328;9.514;2022-07-04T09:13:09;32.20;56.90
36424;DHT22;22458;45.328;9.514;2022-07-04T09:15:37;32.30;56.00
36424;DHT22;22458;45.328;9.514;2022-07-04T09:18:03;32.30;55.80
36424;DHT22;22458;45.328;9.514;2022-07-04T09:20:31;32.40;56.20
36424;DHT22;22458;45.328;9.514;2022-07-04T09:22:58;32.60;56.10
36424;DHT22;22458;45.328;9.514;2022-07-04T09:25:24;32.70;55.60
36424;DHT22;22458;45.328;9.514;2022-07-04T09:27:55;32.70;55.30
36424;DHT22;22458;45.328;9.514;2022-07-04T09:30:24;32.70;55.50
36424;DHT22;22458;45.328;9.514;2022-07-04T09:32:52;32.80;55.30
36424;DHT22;22458;45.328;9.514;2022-07-04T09:35:23;32.80;55.00
36424;DHT22;22458;45.328;9.514;2022-07-04T09:37:52;32.80;56.00
36424;DHT22;22458;45.328;9.514;2022-07-04T09:42:49;33.00;54.10
36424;DHT22;22458;45.328;9.514;2022-07-04T09:45:15;33.10;54.60
36424;DHT22;22458;45.328;9.514;2022-07-04T09:47:44;33.20;54.70
36424;DHT22;22458;45.328;9.514;2022-07-04T09:50:16;33.30;55.00
36424;DHT22;22458;45.328;9.514;2022-07-04T09:52:57;33.40;54.80
36424;DHT22;22458;45.328;9.514;2022-07-04T09:57:59;33.40;52.40
36424;DHT22;22458;45.328;9.514;2022-07-04T10:00:26;33.30;52.00
36424;DHT22;22458;45.328;9.514;2022-07-04T10:02:53;33.20;51.80
36424;DHT22;22458;45.328;9.514;2022-07-04T10:05:25;33.20;52.30
36424;DHT22;22458;45.328;9.514;2022-07-04T10:07:53;33.10;52.40
36424;DHT22;22458;45.328;9.514;2022-07-04T10:10:31;33.10;52.90
36424;DHT22;22458;45.328;9.514;2022-07-04T10:13:07;33.20;52.80
36424;DHT22;22458;45.328;9.514;2022-07-04T10:15:35;33.20;53.40
36424;DHT22;22458;45.328;9.514;2022-07-04T10:18:03;33.20;52.80
36424;DHT22;22458;45.328;9.514;2022-07-04T10:20:28;33.20;52.80
36424;DHT22;22458;45.328;9.514;2022-07-04T10:22:55;33.30;52.80
36424;DHT22;22458;45.328;9.514;2022-07-04T10:25:21;33.50;52.70
36424;DHT22;22458;45.328;9.514;2022-07-04T10:27:47;33.60;51.80
36424;DHT22;22458;45.328;9.514;2022-07-04T10:30:26;33.80;51.80
36424;DHT22;22458;45.328;9.514;2022-07-04T10:32:56;33.90;51.20
36424;DHT22;22458;45.328;9.514;2022-07-04T10:38:14;34.00;51.10
36424;DHT22;22458;45.328;9.514;2022-07-04T10:40:50;34.00;51.10
36424;DHT22;22458;45.328;9.514;2022-07-04T10:54:22;34.70;49.80
36424;DHT22;22458;45.328;9.514;2022-07-04T10:59:36;34.80;49.40
36424;DHT22;22458;45.328;9.514;2022-07-04T11:04:53;35.20;48.90
36424;DHT22;22458;45.328;9.514;2022-07-04T11:17:59;35.60;47.80
36424;DHT22;22458;45.328;9.514;2022-07-04T11:20:27;35.60;47.60
36424;DHT22;22458;45.328;9.514;2022-07-04T11:23:10;35.70;47.20
36424;DHT22;22458;45.328;9.514;2022-07-04T11:25:37;35.70;46.80
36424;DHT22;22458;45.328;9.514;2022-07-04T11:28:26;35.80;46.70
36424;DHT22;22458;45.328;9.514;2022-07-04T11:30:53;35.90;46.40
36424;DHT22;22458;45.328;9.514;2022-07-04T11:33:24;36.00;46.10
36424;DHT22;22458;45.328;9.514;2022-07-04T11:41:20;36.30;45.70
36424;DHT22;22458;45.328;9.514;2022-07-04T11:44:10;36.40;45.60
36424;DHT22;22458;45.328;9.514;2022-07-04T11:47:15;36.50;45.60
36424;DHT22;22458;45.328;9.514;2022-07-04T11:49:52;36.50;45.80
36424;DHT22;22458;45.328;9.514;2022-07-04T11:52:24;36.60;45.80
36424;DHT22;22458;45.328;9.514;2022-07-04T11:54:51;36.70;45.00
36424;DHT22;22458;45.328;9.514;2022-07-04T11:57:24;36.60;45.30
36424;DHT22;22458;45.328;9.514;2022-07-04T11:59:56;36.60;45.10
36424;DHT22;22458;45.328;9.514;2022-07-04T12:02:22;36.60;45.20
36424;DHT22;22458;45.328;9.514;2022-07-04T12:04:47;36.70;45.10
36424;DHT22;22458;45.328;9.514;2022-07-04T12:07:18;36.80;45.00
36424;DHT22;22458;45.328;9.514;2022-07-04T12:09:45;36.90;44.60
36424;DHT22;22458;45.328;9.514;2022-07-04T12:12:12;36.90;45.40
36424;DHT22;22458;45.328;9.514;2022-07-04T12:14:39;37.00;45.00
36424;DHT22;22458;45.328;9.514;2022-07-04T12:17:29;37.00;44.70
36424;DHT22;22458;45.328;9.514;2022-07-04T12:19:58;37.00;44.60
36424;DHT22;22458;45.328;9.514;2022-07-04T12:25:31;37.10;45.20
36424;DHT22;22458;45.328;9.514;2022-07-04T12:28:07;37.00;45.30
36424;DHT22;22458;45.328;9.514;2022-07-04T12:30:36;37.00;44.40
36424;DHT22;22458;45.328;9.514;2022-07-04T12:33:03;37.00;43.80
36424;DHT22;22458;45.328;9.514;2022-07-04T12:38:09;37.20;43.70
36424;DHT22;22458;45.328;9.514;2022-07-04T12:40:37;37.20;43.90
36424;DHT22;22458;45.328;9.514;2022-07-04T12:43:03;37.30;43.80
36424;DHT22;22458;45.328;9.514;2022-07-04T12:46:01;37.40;43.90
36424;DHT22;22458;45.328;9.514;2022-07-04T12:48:28;37.20;44.50
36424;DHT22;22458;45.328;9.514;2022-07-04T12:51:09;37.20;44.70
36424;DHT22;22458;45.328;9.514;2022-07-04T12:53:39;37.20;44.80
36424;DHT22;22458;45.328;9.514;2022-07-04T12:56:06;37.20;44.70
36424;DHT22;22458;45.328;9.514;2022-07-04T12:58:33;37.00;45.30
36424;DHT22;22458;45.328;9.514;2022-07-04T13:00:59;37.10;45.30
36424;DHT22;22458;45.328;9.514;2022-07-04T13:03:24;37.30;44.60
36424;DHT22;22458;45.328;9.514;2022-07-04T13:05:50;37.40;44.20
36424;DHT22;22458;45.328;9.514;2022-07-04T13:08:16;37.50;44.00
36424;DHT22;22458;45.328;9.514;2022-07-04T13:10:42;37.50;44.10
36424;DHT22;22458;45.328;9.514;2022-07-04T13:13:08;37.60;44.00
36424;DHT22;22458;45.328;9.514;2022-07-04T13:15:34;37.60;44.60
36424;DHT22;22458;45.328;9.514;2022-07-04T13:18:00;37.60;44.40
36424;DHT22;22458;45.328;9.514;2022-07-04T13:20:26;37.60;44.00
36424;DHT22;22458;45.328;9.514;2022-07-04T13:22:53;37.70;44.10
36424;DHT22;22458;45.328;9.514;2022-07-04T13:25:19;37.70;44.00
36424;DHT22;22458;45.328;9.514;2022-07-04T13:27:45;37.70;44.40
36424;DHT22;22458;45.328;9.514;2022-07-04T13:30:11;37.60;44.40
36424;DHT22;22458;45.328;9.514;2022-07-04T13:32:37;37.60;44.60
36424;DHT22;22458;45.328;9.514;2022-07-04T13:35:04;37.60;44.30
36424;DHT22;22458;45.328;9.514;2022-07-04T13:37:30;37.60;44.40
36424;DHT22;22458;45.328;9.514;2022-07-04T13:39:56;37.60;44.60
36424;DHT22;22458;45.328;9.514;2022-07-04T13:42:22;37.70;44.80
36424;DHT22;22458;45.328;9.514;2022-07-04T13:45:07;37.70;44.70
36424;DHT22;22458;45.328;9.514;2022-07-04T13:47:33;37.70;44.50
36424;DHT22;22458;45.328;9.514;2022-07-04T13:49:59;37.80;44.20
36424;DHT22;22458;45.328;9.514;2022-07-04T13:52:25;37.80;44.40
36424;DHT22;22458;45.328;9.514;2022-07-04T13:54:51;37.80;44.40
36424;DHT22;22458;45.328;9.514;2022-07-04T13:57:17;37.90;44.50
36424;DHT22;22458;45.328;9.514;2022-07-04T13:59:43;37.90;44.20
36424;DHT22;22458;45.328;9.514;2022-07-04T14:02:09;38.00;44.30
36424;DHT22;22458;45.328;9.514;2022-07-04T14:04:34;38.10;45.00
36424;DHT22;22458;45.328;9.514;2022-07-04T14:07:00;37.90;44.20
36424;DHT22;22458;45.328;9.514;2022-07-04T14:09:26;37.90;44.10
36424;DHT22;22458;45.328;9.514;2022-07-04T14:11:52;38.00;44.10
36424;DHT22;22458;45.328;9.514;2022-07-04T14:14:18;38.20;43.70
36424;DHT22;22458;45.328;9.514;2022-07-04T14:16:44;38.20;43.30
36424;DHT22;22458;45.328;9.514;2022-07-04T14:19:09;38.30;42.90
36424;DHT22;22458;45.328;9.514;2022-07-04T14:21:35;38.40;43.00
36424;DHT22;22458;45.328;9.514;2022-07-04T14:24:01;38.30;41.90
36424;DHT22;22458;45.328;9.514;2022-07-04T14:26:26;38.30;41.50
36424;DHT22;22458;45.328;9.514;2022-07-04T14:28:52;38.20;41.70
36424;DHT22;22458;45.328;9.514;2022-07-04T14:31:18;38.20;42.20
36424;DHT22;22458;45.328;9.514;2022-07-04T14:33:44;38.20;42.40
36424;DHT22;22458;45.328;9.514;2022-07-04T14:36:10;38.20;42.00
36424;DHT22;22458;45.328;9.514;2022-07-04T14:38:36;38.10;42.10
36424;DHT22;22458;45.328;9.514;2022-07-04T14:41:02;38.10;42.20
36424;DHT22;22458;45.328;9.514;2022-07-04T14:43:42;38.10;42.90
36424;DHT22;22458;45.328;9.514;2022-07-04T14:46:08;38.20;42.70
36424;DHT22;22458;45.328;9.514;2022-07-04T14:48:34;38.20;42.70
36424;DHT22;22458;45.328;9.514;2022-07-04T14:51:00;38.30;42.90
36424;DHT22;22458;45.328;9.514;2022-07-04T14:53:26;38.30;43.10
36424;DHT22;22458;45.328;9.514;2022-07-04T14:55:52;38.40;43.30
36424;DHT22;22458;45.328;9.514;2022-07-04T14:58:18;38.40;43.00
36424;DHT22;22458;45.328;9.514;2022-07-04T15:00:44;38.40;43.10
36424;DHT22;22458;45.328;9.514;2022-07-04T15:03:10;38.40;42.70
36424;DHT22;22458;45.328;9.514;2022-07-04T15:05:36;38.40;42.70
36424;DHT22;22458;45.328;9.514;2022-07-04T15:08:02;38.40;43.10
36424;DHT22;22458;45.328;9.514;2022-07-04T15:10:28;38.30;43.10
36424;DHT22;22458;45.328;9.514;2022-07-04T15:12:54;38.30;42.90
36424;DHT22;22458;45.328;9.514;2022-07-04T15:15:19;38.20;42.90
36424;DHT22;22458;45.328;9.514;2022-07-04T15:17:48;38.20;43.20
36424;DHT22;22458;45.328;9.514;2022-07-04T15:20:14;38.00;42.80
36424;DHT22;22458;45.328;9.514;2022-07-04T15:22:58;37.90;42.60
36424;DHT22;22458;45.328;9.514;2022-07-04T15:25:42;37.80;43.20
36424;DHT22;22458;45.328;9.514;2022-07-04T15:28:08;37.70;43.00
36424;DHT22;22458;45.328;9.514;2022-07-04T15:30:34;37.70;42.90
36424;DHT22;22458;45.328;9.514;2022-07-04T15:33:00;37.60;43.20
36424;DHT22;22458;45.328;9.514;2022-07-04T15:35:26;37.50;42.70
36424;DHT22;22458;45.328;9.514;2022-07-04T15:37:51;37.40;42.50
36424;DHT22;22458;45.328;9.514;2022-07-04T15:40:17;37.30;42.80
36424;DHT22;22458;45.328;9.514;2022-07-04T15:42:43;37.30;43.70
36424;DHT22;22458;45.328;9.514;2022-07-04T15:45:09;37.30;43.80
36424;DHT22;22458;45.328;9.514;2022-07-04T15:47:35;37.20;42.60
36424;DHT22;22458;45.328;9.514;2022-07-04T15:50:02;37.10;42.50
36424;DHT22;22458;45.328;9.514;2022-07-04T15:52:27;37.00;42.50
36424;DHT22;22458;45.328;9.514;2022-07-04T15:54:54;37.00;42.70
36424;DHT22;22458;45.328;9.514;2022-07-04T15:57:20;36.90;42.80
36424;DHT22;22458;45.328;9.514;2022-07-04T15:59:45;36.90;43.10
36424;DHT22;22458;45.328;9.514;2022-07-04T16:02:11;36.80;43.40
36424;DHT22;22458;45.328;9.514;2022-07-04T16:04:37;36.70;43.70
36424;DHT22;22458;45.328;9.514;2022-07-04T16:07:03;36.60;43.90
36424;DHT22;22458;45.328;9.514;2022-07-04T16:09:29;36.50;43.60
36424;DHT22;22458;45.328;9.514;2022-07-04T16:11:56;36.40;43.70
36424;DHT22;22458;45.328;9.514;2022-07-04T16:14:22;36.30;43.80
36424;DHT22;22458;45.328;9.514;2022-07-04T16:16:47;36.20;44.00